createdAt,value
2023-04-15T00:01:45.513Z,100691.50
2023-04-15T00:04:13.156Z,100704.56
2023-04-15T00:06:41.107Z,100699.38
2023-04-15T00:09:08.865Z,100713.31
2023-04-15T00:11:36.369Z,100724.59
2023-04-15T00:14:03.605Z,100723.59
2023-04-15T00:16:30.983Z,100741.00
2023-04-15T00:18:58.589Z,100734.78
2023-04-15T00:21:27.743Z,100732.97
2023-04-15T00:23:55.263Z,100738.13
2023-04-15T00:26:22.823Z,100745.13
2023-04-15T00:28:50.508Z,100745.03
2023-04-15T00:31:18.262Z,100750.25
2023-04-15T00:33:47.087Z,100750.19
2023-04-15T00:36:14.804Z,100753.56
2023-04-15T00:38:42.322Z,100752.69
2023-04-15T00:41:11.170Z,100758.72
2023-04-15T00:43:38.635Z,100754.59
2023-04-15T00:46:07.679Z,100754.59
2023-04-15T00:48:36.030Z,100764.97
2023-04-15T00:51:03.576Z,100760.66
2023-04-15T00:53:31.061Z,100758.97
2023-04-15T00:56:01.669Z,100764.03
2023-04-15T00:58:29.298Z,100768.34
2023-04-15T01:00:57.415Z,100771.66
2023-04-15T01:03:25.576Z,100775.81
2023-04-15T01:05:58.383Z,100782.69
2023-04-15T01:08:32.361Z,100778.44
2023-04-15T01:11:03.752Z,100786.19
2023-04-15T01:13:33.945Z,100795.53
2023-04-15T01:16:03.208Z,100802.69
2023-04-15T01:18:31.507Z,100798.09
2023-04-15T01:21:03.797Z,100792.66
2023-04-15T01:23:32.889Z,100794.44
2023-04-15T01:26:00.358Z,100787.38
2023-04-15T01:28:28.554Z,100800.28
2023-04-15T01:31:13.861Z,100802.75
2023-04-15T01:33:43.365Z,100802.72
2023-04-15T01:36:11.066Z,100809.53
2023-04-15T01:38:39.243Z,100809.34
2023-04-15T01:41:08.279Z,100803.22
2023-04-15T01:43:37.478Z,100804.19
2023-04-15T01:46:05.391Z,100815.31
2023-04-15T01:48:33.515Z,100808.28
2023-04-15T01:51:00.932Z,100805.72
2023-04-15T01:53:28.621Z,100815.19
2023-04-15T01:55:56.362Z,100813.41
2023-04-15T01:58:23.996Z,100820.41
2023-04-15T02:00:51.710Z,100827.34
2023-04-15T02:03:19.490Z,100834.81
2023-04-15T02:05:47.051Z,100834.84
2023-04-15T02:08:14.651Z,100837.63
2023-04-15T02:10:42.191Z,100832.22
2023-04-15T02:13:11.012Z,100833.03
2023-04-15T02:15:38.414Z,100832.16
2023-04-15T02:18:05.879Z,100832.19
2023-04-15T02:20:33.244Z,100834.78
2023-04-15T02:23:01.204Z,100844.94
2023-04-15T02:25:28.602Z,100857.19
2023-04-15T02:27:57.631Z,100868.59
2023-04-15T02:30:26.096Z,100870.28
2023-04-15T02:32:53.715Z,100867.44
2023-04-15T02:35:21.158Z,100876.00
2023-04-15T02:37:48.501Z,100882.19
2023-04-15T02:40:15.874Z,100888.13
2023-04-15T02:42:44.415Z,100880.22
2023-04-15T02:45:14.538Z,100898.22
2023-04-15T02:47:43.452Z,100885.19
2023-04-15T02:50:13.323Z,100892.31
2023-04-15T02:52:43.478Z,100899.84
2023-04-15T02:55:11.673Z,100903.38
2023-04-15T02:57:40.875Z,100910.22
2023-04-15T03:00:11.949Z,100921.63
2023-04-15T03:02:43.234Z,100916.31
2023-04-15T03:05:15.063Z,100920.59
2023-04-15T03:07:52.214Z,100924.94
2023-04-15T03:10:20.898Z,100924.00
2023-04-15T03:12:48.586Z,100927.47
2023-04-15T03:15:21.598Z,100929.22
2023-04-15T03:17:52.301Z,100931.91
2023-04-15T03:20:20.432Z,100935.19
2023-04-15T03:22:49.060Z,100944.53
2023-04-15T03:25:17.161Z,100939.56
2023-04-15T03:27:44.620Z,100947.31
2023-04-15T03:30:13.537Z,100945.47
2023-04-15T03:32:41.871Z,100952.19
2023-04-15T03:35:09.898Z,100955.84
2023-04-15T03:37:37.341Z,100953.97
2023-04-15T03:40:05.267Z,100966.03
2023-04-15T03:42:32.689Z,100968.69
2023-04-15T03:45:00.415Z,100964.00
2023-04-15T03:47:27.864Z,100960.72
2023-04-15T03:49:55.808Z,100967.53
2023-04-15T03:52:23.236Z,100968.41
2023-04-15T03:54:50.557Z,100980.38
2023-04-15T03:57:17.917Z,100978.66
2023-04-15T03:59:45.449Z,100973.41
2023-04-15T04:02:12.894Z,100988.00
2023-04-15T04:04:40.359Z,100987.06
2023-04-15T04:07:07.791Z,100992.94
2023-04-15T04:09:35.303Z,100997.22
2023-04-15T04:12:02.712Z,100993.75
2023-04-15T04:14:30.021Z,100996.44
2023-04-15T04:16:57.597Z,101006.63
2023-04-15T04:19:25.163Z,101010.22
2023-04-15T04:21:52.825Z,101013.66
2023-04-15T04:24:20.616Z,101011.69
2023-04-15T04:26:48.603Z,101024.75
2023-04-15T04:29:16.416Z,101023.84
2023-04-15T04:31:44.148Z,101026.59
2023-04-15T04:34:11.769Z,101023.66
2023-04-15T04:36:39.067Z,101031.50
2023-04-15T04:39:06.405Z,101033.88
2023-04-15T04:41:33.855Z,101038.41
2023-04-15T04:44:01.238Z,101037.56
2023-04-15T04:46:28.646Z,101047.00
2023-04-15T04:48:56.152Z,101051.16
2023-04-15T04:51:23.588Z,101047.63
2023-04-15T04:53:51.025Z,101048.69
2023-04-15T04:56:18.356Z,101051.03
2023-04-15T04:58:46.020Z,101058.00
2023-04-15T05:01:13.745Z,101055.44
2023-04-15T05:03:41.933Z,101058.94
2023-04-15T05:06:09.616Z,101065.66
2023-04-15T05:08:39.124Z,101069.97
2023-04-15T05:11:07.737Z,101061.63
2023-04-15T05:13:38.716Z,101078.84
2023-04-15T05:18:34.504Z,101080.13
2023-04-15T05:21:02.840Z,101081.03
2023-04-15T05:23:30.343Z,101089.06
2023-04-15T05:25:57.869Z,101096.88
2023-04-15T05:28:25.226Z,101093.59
2023-04-15T05:30:52.639Z,101100.59
2023-04-15T05:33:20.175Z,101109.72
2023-04-15T05:35:47.609Z,101113.44
2023-04-15T05:38:14.941Z,101123.09
2023-04-15T05:40:42.598Z,101122.53
2023-04-15T05:43:10.220Z,101132.13
2023-04-15T05:45:37.800Z,101135.97
2023-04-15T05:48:05.416Z,101134.50
2023-04-15T05:50:33.080Z,101134.88
2023-04-15T05:53:00.836Z,101140.41
2023-04-15T05:55:28.281Z,101146.06
2023-04-15T05:57:55.866Z,101154.06
2023-04-15T06:00:23.154Z,101163.06
2023-04-15T06:02:50.781Z,101167.22
2023-04-15T06:05:18.432Z,101163.94
2023-04-15T06:07:48.337Z,101169.69
2023-04-15T06:10:16.184Z,101173.28
2023-04-15T06:12:43.653Z,101175.59
2023-04-15T06:15:11.439Z,101177.63
2023-04-15T06:17:38.881Z,101184.78
2023-04-15T06:20:08.632Z,101186.47
2023-04-15T06:22:38.140Z,101186.16
2023-04-15T06:25:08.243Z,101196.34
2023-04-15T06:27:35.717Z,101193.78
2023-04-15T06:30:04.435Z,101201.19
2023-04-15T06:32:32.722Z,101211.53
2023-04-15T06:35:00.385Z,101212.50
2023-04-15T06:37:27.918Z,101212.47
2023-04-15T06:39:55.404Z,101218.19
2023-04-15T06:42:23.228Z,101214.31
2023-04-15T06:44:51.499Z,101222.94
2023-04-15T06:47:19.862Z,101229.47
2023-04-15T06:49:47.375Z,101233.13
2023-04-15T06:52:16.649Z,101233.91
2023-04-15T06:54:44.150Z,101232.91
2023-04-15T06:57:11.625Z,101229.81
2023-04-15T06:59:39.203Z,101241.78
2023-04-15T07:02:09.141Z,101232.22
2023-04-15T07:04:36.991Z,101230.41
2023-04-15T07:07:04.717Z,101232.44
2023-04-15T07:09:32.611Z,101232.13
2023-04-15T07:12:00.149Z,101242.22
2023-04-15T07:14:28.004Z,101234.50
2023-04-15T07:16:55.971Z,101232.13
2023-04-15T07:19:23.639Z,101232.59
2023-04-15T07:21:51.706Z,101248.00
2023-04-15T07:24:20.707Z,101248.19
2023-04-15T07:26:48.256Z,101259.97
2023-04-15T07:29:15.967Z,101260.06
2023-04-15T07:31:46.558Z,101269.53
2023-04-15T07:34:16.507Z,101266.06
2023-04-15T07:36:44.765Z,101266.94
2023-04-15T07:39:12.323Z,101268.13
2023-04-15T07:41:39.816Z,101273.41
2023-04-15T07:44:07.276Z,101274.66
2023-04-15T07:46:34.819Z,101277.31
2023-04-15T07:49:02.500Z,101283.75
2023-04-15T07:51:30.826Z,101287.44
2023-04-15T07:53:58.850Z,101293.34
2023-04-15T07:56:26.691Z,101295.66
2023-04-15T07:58:54.144Z,101295.84
2023-04-15T08:01:21.756Z,101298.28
2023-04-15T08:03:53.080Z,101293.75
2023-04-15T08:06:20.963Z,101297.63
2023-04-15T08:08:48.472Z,101312.63
2023-04-15T08:11:16.626Z,101314.75
2023-04-15T08:13:44.171Z,101321.16
2023-04-15T08:16:18.979Z,101322.69
2023-04-15T08:18:48.763Z,101326.09
2023-04-15T08:21:24.386Z,101325.88
2023-04-15T08:23:54.695Z,101328.78
2023-04-15T08:26:22.971Z,101325.19
2023-04-15T08:28:50.511Z,101330.09
2023-04-15T08:31:21.989Z,101324.19
2023-04-15T08:33:52.152Z,101329.34
2023-04-15T08:36:20.112Z,101340.38
2023-04-15T08:38:47.702Z,101351.78
2023-04-15T08:41:23.731Z,101341.13
2023-04-15T08:44:00.250Z,101347.59
2023-04-15T08:46:28.214Z,101355.63
2023-04-15T08:48:59.326Z,101359.47
2023-04-15T08:51:27.815Z,101363.63
2023-04-15T08:53:55.375Z,101362.69
2023-04-15T08:56:28.805Z,101374.69
2023-04-15T08:58:57.075Z,101375.66
2023-04-15T09:01:25.674Z,101378.38
2023-04-15T09:03:54.988Z,101381.50
2023-04-15T09:06:23.490Z,101382.91
2023-04-15T09:08:52.103Z,101385.59
2023-04-15T09:11:20.288Z,101394.25
2023-04-15T09:13:48.396Z,101385.47
2023-04-15T09:16:15.788Z,101396.38
2023-04-15T09:18:43.387Z,101400.50
2023-04-15T09:21:14.184Z,101405.66
2023-04-15T09:23:56.947Z,101397.97
2023-04-15T09:26:38.048Z,101420.09
2023-04-15T09:29:07.708Z,101426.56
2023-04-15T09:31:39.320Z,101427.09
2023-04-15T09:34:07.507Z,101428.28
2023-04-15T09:37:00.994Z,101433.25
2023-04-15T09:39:28.864Z,101428.66
2023-04-15T09:42:07.397Z,101437.41
2023-04-15T09:44:34.894Z,101445.91
2023-04-15T09:47:02.417Z,101444.97
2023-04-15T09:49:29.994Z,101444.06
2023-04-15T09:52:05.102Z,101443.50
2023-04-15T09:54:38.143Z,101447.78
2023-04-15T09:57:10.231Z,101454.00
2023-04-15T09:59:38.108Z,101452.25
2023-04-15T10:02:09.510Z,101454.78
2023-04-15T10:04:41.734Z,101462.72
2023-04-15T10:07:10.142Z,101479.66
2023-04-15T10:09:38.745Z,101475.16
2023-04-15T10:12:06.343Z,101475.28
2023-04-15T10:14:38.848Z,101476.94
2023-04-15T10:17:11.647Z,101485.09
2023-04-15T10:19:39.289Z,101480.97
2023-04-15T10:22:07.979Z,101491.28
2023-04-15T10:24:35.732Z,101479.66
2023-04-15T10:27:07.542Z,101488.78
2023-04-15T10:29:35.205Z,101505.78
2023-04-15T10:32:03.822Z,101500.78
2023-04-15T10:34:32.334Z,101497.00
2023-04-15T10:37:03.890Z,101509.88
2023-04-15T10:39:34.597Z,101517.72
2023-04-15T10:42:16.940Z,101520.31
2023-04-15T10:44:49.978Z,101512.03
2023-04-15T10:47:19.674Z,101515.06
2023-04-15T10:49:52.538Z,101517.78
2023-04-15T10:52:26.296Z,101520.06
2023-04-15T10:55:19.001Z,101528.56
2023-04-15T10:57:46.712Z,101527.97
2023-04-15T11:00:16.585Z,101530.84
2023-04-15T11:02:48.454Z,101539.75
2023-04-15T11:05:17.985Z,101528.16
2023-04-15T11:07:51.151Z,101521.59
2023-04-15T11:10:18.728Z,101534.41
2023-04-15T11:12:46.693Z,101515.88
2023-04-15T11:15:33.279Z,101529.47
2023-04-15T11:18:01.527Z,101534.03
2023-04-15T11:20:29.875Z,101536.53
2023-04-15T11:23:14.551Z,101551.31
2023-04-15T11:25:43.818Z,101543.97
2023-04-15T11:28:12.591Z,101553.94
2023-04-15T11:30:42.304Z,101561.88
2023-04-15T11:33:12.350Z,101554.31
2023-04-15T11:35:42.077Z,101556.84
2023-04-15T11:38:16.845Z,101540.88
2023-04-15T11:40:46.980Z,101549.47
2023-04-15T11:43:23.308Z,101552.94
2023-04-15T11:45:59.298Z,101550.88
2023-04-15T11:48:32.245Z,101556.09
2023-04-15T11:51:05.107Z,101565.16
2023-04-15T11:53:52.281Z,101559.13
2023-04-15T11:56:24.632Z,101563.44
2023-04-15T11:58:59.789Z,101572.13
2023-04-15T12:01:39.958Z,101569.63
2023-04-15T12:04:15.329Z,101564.38
2023-04-15T12:06:43.522Z,101574.41
2023-04-15T12:09:13.252Z,101570.94
2023-04-15T12:11:53.071Z,101580.47
2023-04-15T12:14:32.243Z,101572.75
2023-04-15T12:17:05.020Z,101580.75
2023-04-15T12:19:37.725Z,101585.94
2023-04-15T12:22:08.848Z,101586.69
2023-04-15T12:24:38.142Z,101592.16
2023-04-15T12:27:07.853Z,101594.84
2023-04-15T12:29:37.051Z,101609.94
2023-04-15T12:32:08.144Z,101599.25
2023-04-15T12:34:43.474Z,101594.56
2023-04-15T12:37:13.362Z,101598.97
2023-04-15T12:39:43.700Z,101602.50
2023-04-15T12:42:11.977Z,101612.09
2023-04-15T12:44:40.202Z,101616.66
2023-04-15T12:47:10.064Z,101608.69
2023-04-15T12:49:37.853Z,101619.28
2023-04-15T12:52:06.020Z,101621.09
2023-04-15T12:54:34.684Z,101621.03
2023-04-15T12:57:05.957Z,101612.03
2023-04-15T12:59:34.330Z,101612.72
2023-04-15T13:02:03.113Z,101618.22
2023-04-15T13:04:31.686Z,101629.84
2023-04-15T13:06:59.420Z,101625.00
2023-04-15T13:09:27.177Z,101627.00
2023-04-15T13:11:54.800Z,101632.41
2023-04-15T13:14:22.396Z,101638.72
2023-04-15T13:16:49.855Z,101641.34
2023-04-15T13:19:17.571Z,101639.63
2023-04-15T13:21:45.061Z,101630.88
2023-04-15T13:24:12.532Z,101631.81
2023-04-15T13:26:39.977Z,101644.91
2023-04-15T13:29:07.532Z,101645.72
2023-04-15T13:31:35.055Z,101638.56
2023-04-15T13:36:30.715Z,101654.81
2023-04-15T13:38:58.547Z,101655.69
2023-04-15T13:41:26.040Z,101655.69
2023-04-15T13:43:53.480Z,101653.03
2023-04-15T13:46:21.101Z,101656.56
2023-04-15T13:48:48.948Z,101658.31
2023-04-15T13:51:16.388Z,101665.34
2023-04-15T13:53:43.867Z,101669.75
2023-04-15T13:56:11.369Z,101669.75
2023-04-15T13:58:41.605Z,101674.16
2023-04-15T14:01:09.246Z,101672.38
2023-04-15T14:03:37.199Z,101682.94
2023-04-15T14:06:08.207Z,101682.03
2023-04-15T14:08:35.800Z,101674.16
2023-04-15T14:11:03.260Z,101679.41
2023-04-15T14:13:31.342Z,101692.63
2023-04-15T14:15:58.952Z,101682.94
2023-04-15T14:18:26.493Z,101689.09
2023-04-15T14:20:54.144Z,101697.88
2023-04-15T14:23:21.839Z,101691.75
2023-04-15T14:25:51.189Z,101696.13
2023-04-15T14:28:18.730Z,101703.19
2023-04-15T14:30:46.567Z,101702.28
2023-04-15T14:33:14.163Z,101701.41
2023-04-15T14:35:41.714Z,101702.28
2023-04-15T14:38:11.542Z,101710.19
2023-04-15T14:40:39.209Z,101718.97
2023-04-15T14:43:06.738Z,101716.34
2023-04-15T14:45:34.785Z,101714.56
2023-04-15T14:48:02.570Z,101714.56
2023-04-15T14:50:30.151Z,101716.34
2023-04-15T14:52:58.880Z,101716.34
2023-04-15T14:55:26.290Z,101705.78
2023-04-15T14:57:53.798Z,101713.69
2023-04-15T15:00:21.217Z,101714.56
2023-04-15T15:02:49.062Z,101717.22
2023-04-15T15:05:16.700Z,101722.47
2023-04-15T15:07:44.288Z,101730.41
2023-04-15T15:10:11.766Z,101727.72
2023-04-15T15:12:39.193Z,101727.72
2023-04-15T15:15:19.439Z,101728.59
2023-04-15T15:17:54.705Z,101725.03
2023-04-15T15:20:23.121Z,101734.69
2023-04-15T15:22:51.100Z,101732.94
2023-04-15T15:25:18.753Z,101740.00
2023-04-15T15:27:46.871Z,101738.22
2023-04-15T15:30:14.440Z,101734.69
2023-04-15T15:32:42.974Z,101739.06
2023-04-15T15:35:10.978Z,101729.31
2023-04-15T15:37:38.788Z,101737.19
2023-04-15T15:40:07.242Z,101742.47
2023-04-15T15:42:35.067Z,101754.75
2023-04-15T15:45:04.176Z,101760.88
2023-04-15T15:47:32.190Z,101752.13
2023-04-15T15:50:01.058Z,101762.66
2023-04-15T15:52:28.766Z,101761.78
2023-04-15T15:54:56.205Z,101756.50
2023-04-15T15:57:23.757Z,101767.00
2023-04-15T16:00:04.678Z,101774.03
2023-04-15T16:03:04.430Z,101766.09
2023-04-15T16:05:25.351Z,101776.59
2023-04-15T16:07:52.885Z,101778.31
2023-04-15T16:10:20.476Z,101777.31
2023-04-15T16:12:47.991Z,101788.75
2023-04-15T16:15:15.597Z,101793.94
2023-04-15T16:17:43.105Z,101792.97
2023-04-15T16:20:10.972Z,101791.25
2023-04-15T16:22:39.201Z,101808.78
2023-04-15T16:25:07.254Z,101800.84
2023-04-15T16:27:40.828Z,101810.44
2023-04-15T16:30:17.750Z,101814.78
2023-04-15T16:32:45.169Z,101813.03
2023-04-15T16:35:14.570Z,101816.44
2023-04-15T16:37:42.026Z,101817.28
2023-04-15T16:40:10.110Z,101817.00
2023-04-15T16:42:37.525Z,101817.94
2023-04-15T16:45:05.565Z,101821.50
2023-04-15T16:47:33.080Z,101817.03
2023-04-15T16:50:00.596Z,101822.28
2023-04-15T16:52:29.033Z,101819.47
2023-04-15T16:54:56.443Z,101835.38
2023-04-15T16:57:23.683Z,101827.56
2023-04-15T16:59:53.202Z,101836.28
2023-04-15T17:02:20.869Z,101836.31
2023-04-15T17:04:48.548Z,101843.25
2023-04-15T17:07:16.224Z,101833.50
2023-04-15T17:09:43.621Z,101835.28
2023-04-15T17:12:11.026Z,101835.25
2023-04-15T17:14:39.084Z,101840.44
2023-04-15T17:17:06.680Z,101857.94
2023-04-15T17:19:34.430Z,101857.84
2023-04-15T17:22:02.414Z,101856.84
2023-04-15T17:24:31.097Z,101859.34
2023-04-15T17:26:58.558Z,101865.47
2023-04-15T17:29:26.009Z,101867.13
2023-04-15T17:31:54.906Z,101868.81
2023-04-15T17:34:22.536Z,101870.50
2023-04-15T17:36:51.454Z,101870.53
2023-04-15T17:39:18.975Z,101869.53
2023-04-15T17:41:46.774Z,101866.84
2023-04-15T17:44:14.248Z,101871.19
2023-04-15T17:46:41.843Z,101873.78
2023-04-15T17:49:09.558Z,101869.44
2023-04-15T17:51:37.048Z,101875.50
2023-04-15T17:54:08.000Z,101885.97
2023-04-15T17:56:35.548Z,101884.78
2023-04-15T17:59:03.592Z,101884.06
2023-04-15T18:01:31.256Z,101889.38
2023-04-15T18:03:58.929Z,101892.03
2023-04-15T18:06:27.350Z,101897.13
2023-04-15T18:08:54.858Z,101901.41
2023-04-15T18:11:22.364Z,101897.66
2023-04-15T18:13:49.862Z,101905.28
2023-04-15T18:16:17.627Z,101905.03
2023-04-15T18:18:45.243Z,101910.28
2023-04-15T18:21:13.885Z,101906.03
2023-04-15T18:23:41.516Z,101913.25
2023-04-15T18:26:09.109Z,101909.81
2023-04-15T18:28:37.978Z,101910.56
2023-04-15T18:31:06.607Z,101916.03
2023-04-15T18:33:35.773Z,101926.22
2023-04-15T18:36:03.288Z,101928.00
2023-04-15T18:38:30.640Z,101926.06
2023-04-15T18:40:58.809Z,101932.91
2023-04-15T18:43:26.277Z,101923.53
2023-04-15T18:45:55.032Z,101921.81
2023-04-15T18:48:22.813Z,101926.31
2023-04-15T18:50:54.035Z,101931.44
2023-04-15T18:53:21.777Z,101926.78
2023-04-15T18:55:49.221Z,101939.41
2023-04-15T18:58:16.886Z,101936.19
2023-04-15T19:00:44.588Z,101938.22
2023-04-15T19:03:12.141Z,101936.56
2023-04-15T19:05:40.164Z,101939.91
2023-04-15T19:08:07.633Z,101946.78
2023-04-15T19:10:35.518Z,101955.88
2023-04-15T19:13:04.410Z,101961.53
2023-04-15T19:15:32.081Z,101967.66
2023-04-15T19:17:59.708Z,101966.63
2023-04-15T19:20:27.364Z,101971.94
2023-04-15T19:22:55.087Z,101959.56
2023-04-15T19:25:22.529Z,101963.22
2023-04-15T19:27:50.072Z,101967.53
2023-04-15T19:30:17.593Z,101979.75
2023-04-15T19:32:45.190Z,101979.00
2023-04-15T19:35:12.792Z,101985.22
2023-04-15T19:37:40.594Z,101982.22
2023-04-15T19:40:09.469Z,101983.25
2023-04-15T19:42:36.954Z,101987.28
2023-04-15T19:45:04.427Z,101990.44
2023-04-15T19:47:33.598Z,102002.44
2023-04-15T19:50:01.122Z,101997.78
2023-04-15T19:52:28.646Z,102012.03
2023-04-15T19:54:56.089Z,102003.56
2023-04-15T19:57:23.749Z,102009.19
2023-04-15T19:59:51.379Z,102006.34
2023-04-15T20:02:19.052Z,102012.50
2023-04-15T20:04:46.844Z,102013.22
2023-04-15T20:07:14.366Z,102020.63
2023-04-15T20:09:43.895Z,102021.09
2023-04-15T20:12:50.179Z,102030.56
2023-04-15T20:14:58.683Z,102023.47
2023-04-15T20:17:26.060Z,102031.31
2023-04-15T20:19:53.405Z,102034.00
2023-04-15T20:22:20.801Z,102037.69
2023-04-15T20:24:48.193Z,102036.75
2023-04-15T20:27:16.288Z,102039.94
2023-04-15T20:29:43.704Z,102044.38
2023-04-15T20:32:11.687Z,102047.78
2023-04-15T20:34:40.641Z,102046.06
2023-04-15T20:37:08.067Z,102052.97
2023-04-15T20:39:35.691Z,102056.00
2023-04-15T20:42:03.537Z,102053.53
2023-04-15T20:44:31.133Z,102051.91
2023-04-15T20:46:58.579Z,102051.56
2023-04-15T20:49:26.036Z,102054.72
2023-04-15T20:51:53.309Z,102064.16
2023-04-15T20:54:20.929Z,102061.13
2023-04-15T20:56:48.399Z,102054.31
2023-04-15T20:59:16.079Z,102064.78
2023-04-15T21:01:43.564Z,102068.66
2023-04-15T21:04:11.363Z,102075.41
2023-04-15T21:06:38.820Z,102078.50
2023-04-15T21:09:06.668Z,102083.75
2023-04-15T21:11:53.164Z,102087.38
2023-04-15T21:14:21.877Z,102083.25
2023-04-15T21:16:49.386Z,102077.56
2023-04-15T21:19:16.954Z,102078.38
2023-04-15T21:21:44.428Z,102074.59
2023-04-15T21:24:11.911Z,102077.22
2023-04-15T21:26:39.344Z,102085.63
2023-04-15T21:29:09.506Z,102083.56
2023-04-15T21:31:38.920Z,102092.22
2023-04-15T21:34:08.052Z,102100.72
2023-04-15T21:36:35.922Z,102103.47
2023-04-15T21:39:04.883Z,102105.13
2023-04-15T21:41:32.898Z,102110.16
2023-04-15T21:44:00.479Z,102112.06
2023-04-15T21:46:34.994Z,102116.19
2023-04-15T21:49:03.689Z,102108.38
2023-04-15T21:51:31.597Z,102109.97
2023-04-15T21:53:59.779Z,102111.56
2023-04-15T21:56:27.460Z,102115.19
2023-04-15T21:58:57.222Z,102118.31
2023-04-15T22:01:26.754Z,102120.31
2023-04-15T22:03:54.445Z,102129.47
2023-04-15T22:06:21.993Z,102130.09
2023-04-15T22:08:56.895Z,102129.97
2023-04-15T22:11:30.464Z,102121.09
2023-04-15T22:13:58.994Z,102124.31
2023-04-15T22:16:27.241Z,102123.59
2023-04-15T22:18:55.623Z,102122.13
2023-04-15T22:21:23.537Z,102119.47
2023-04-15T22:23:51.733Z,102121.19
2023-04-15T22:26:19.320Z,102124.72
2023-04-15T22:28:46.793Z,102120.31
2023-04-15T22:31:15.034Z,102122.88
2023-04-15T22:33:42.654Z,102132.75
2023-04-15T22:36:10.177Z,102146.25
2023-04-15T22:38:37.775Z,102143.31
2023-04-15T22:41:05.301Z,102148.41
2023-04-15T22:43:32.827Z,102156.88
2023-04-15T22:46:01.043Z,102157.81
2023-04-15T22:48:28.719Z,102157.72
2023-04-15T22:50:56.265Z,102153.13
2023-04-15T22:53:23.705Z,102151.78
2023-04-15T22:55:51.817Z,102157.72
2023-04-15T22:58:19.084Z,102156.66
2023-04-15T23:00:46.354Z,102153.81
2023-04-15T23:03:13.898Z,102154.28
2023-04-15T23:05:42.402Z,102157.66
2023-04-15T23:08:10.112Z,102144.50
2023-04-15T23:10:40.083Z,102144.91
2023-04-15T23:13:07.527Z,102157.56
2023-04-15T23:15:34.778Z,102154.75
2023-04-15T23:18:02.592Z,102159.03
2023-04-15T23:20:30.109Z,102156.31
2023-04-15T23:22:57.604Z,102149.94
2023-04-15T23:25:25.122Z,102147.38
2023-04-15T23:27:52.657Z,102146.28
2023-04-15T23:30:19.939Z,102153.78
2023-04-15T23:32:47.311Z,102146.91
2023-04-15T23:35:14.778Z,102147.78
2023-04-15T23:37:42.360Z,102145.00
2023-04-15T23:40:10.521Z,102154.59
2023-04-15T23:42:38.083Z,102139.91
2023-04-15T23:45:06.020Z,102147.63
2023-04-15T23:47:33.578Z,102148.44
2023-04-15T23:50:01.300Z,102159.03
2023-04-15T23:52:28.774Z,102145.19
2023-04-15T23:54:56.065Z,102145.19
2023-04-15T23:57:23.394Z,102146.13
2023-04-15T23:59:50.649Z,102150.00
